Terminal Aerodrome Forecast
Issued by NWS

Home | Current Version | Previous Version | Text Only | Print | Product List | Glossary On
Versions: 1 2 3 4 5 6 7 8 9 10 11 12 13 14
178
FTUS45 KRIW 240540
TAFLND
TAF
KLND 240540Z 2406/2506 02005KT 1/4SM +SN VV005
     FM241200 VRB05KT 1SM -SN BR SCT005 OVC012
     FM242000 VRB05KT 4SM -SN SCT015 OVC025
     FM250000 VRB05KT 6SM -SN OVC030=

USA.gov is the U.S. government's official web portal to all federal, state and local government web resources and services.